Time;durP1;ratioP1;P1;durP2;ratioP2;P2;SDS_P1;SDS_P2;PMS_P1;PMS_P2;Temp;Humidity;BMP_temperature;BMP_pressure;BME280_temperature;BME280_humidity;BME280_pressure;Samples;Min_cycle;Max_cycle;Signal;HPM_P1;HPM_P2
2021/04/18 00:02:37;;;;;;;44.35;25.35;;;;;;;7.63;74.09;100642.38;2217416;80;29993;-64
2021/04/18 00:05:39;;;;;;;40.45;25.55;;;;;;;7.62;74.05;100646.44;2217431;80;27670;-65
2021/04/18 00:08:41;;;;;;;37.33;26.23;;;;;;;7.64;74.19;100641.94;2214178;80;28825;-67
2021/04/18 00:11:43;;;;;;;43.52;26.20;;;;;;;7.65;74.16;100645.87;2178727;81;31142;-64
2021/04/18 00:14:45;;;;;;;36.85;25.30;;;;;;;7.66;74.19;100641.42;2178773;81;33569;-66
2021/04/18 00:17:47;;;;;;;39.42;25.30;;;;;;;7.65;74.14;100648.54;2179437;79;28868;-67
2021/04/18 00:20:49;;;;;;;48.23;26.70;;;;;;;7.63;74.12;100641.05;2178764;81;28212;-64
2021/04/18 00:23:51;;;;;;;44.83;26.57;;;;;;;7.62;74.19;100638.44;2178641;81;29857;-67
2021/04/18 00:26:53;;;;;;;40.98;24.60;;;;;;;7.62;74.22;100635.30;2178604;81;31198;-65
2021/04/18 00:29:55;;;;;;;40.28;24.92;;;;;;;7.63;74.27;100637.52;2205113;80;34358;-67
2021/04/18 00:32:57;;;;;;;37.75;25.40;;;;;;;7.63;74.26;100634.85;2221413;80;28778;-67
2021/04/18 00:35:59;;;;;;;38.88;25.43;;;;;;;7.65;74.32;100633.02;2222223;80;27732;-68
2021/04/18 00:39:02;;;;;;;39.27;27.50;;;;;;;7.68;74.29;100630.25;2213715;80;29802;-67
2021/04/18 00:42:04;;;;;;;45.73;26.93;;;;;;;7.66;74.27;100619.62;2183399;81;31143;-67
2021/04/18 00:45:09;;;;;;;39.40;25.52;;;;;;;7.66;74.29;100616.09;2210354;80;33102;-67
2021/04/18 00:48:11;;;;;;;43.75;26.02;;;;;;;7.66;74.27;100617.42;2222387;80;28869;-67
2021/04/18 00:51:15;;;;;;;47.45;28.05;;;;;;;7.64;74.26;100616.59;2190785;80;27639;-68
2021/04/18 00:54:17;;;;;;;46.90;28.90;;;;;;;7.62;74.35;100612.63;2225909;80;28868;-68
2021/04/18 00:57:19;;;;;;;46.40;30.37;;;;;;;7.58;74.32;100604.34;2181341;80;32556;-67
2021/04/18 01:00:23;;;;;;;55.40;31.17;;;;;;;7.57;74.35;100607.93;2141845;82;33087;-67
2021/04/18 01:03:25;;;;;;;49.10;30.25;;;;;;;7.55;74.45;100604.44;2195102;81;29831;-67
2021/04/18 01:06:27;;;;;;;51.08;31.02;;;;;;;7.54;74.45;100598.22;2195296;81;27611;-67
2021/04/18 01:09:30;;;;;;;53.55;31.85;;;;;;;7.55;74.46;100607.11;2194328;81;28875;-67
2021/04/18 01:12:32;;;;;;;54.40;32.93;;;;;;;7.55;74.48;100607.11;2195072;81;31127;-66
2021/04/18 01:15:35;;;;;;;51.63;31.57;;;;;;;7.52;74.47;100606.75;2194958;81;33542;-65
2021/04/18 01:18:37;;;;;;;49.30;31.55;;;;;;;7.53;74.53;100604.47;2195148;81;28961;-66
2021/04/18 01:21:39;;;;;;;48.52;31.80;;;;;;;7.52;74.46;100601.86;2195172;80;27681;-66
2021/04/18 01:24:41;;;;;;;46.28;31.60;;;;;;;7.51;74.48;100602.34;2178034;80;28847;-68
2021/04/18 01:27:45;;;;;;;48.13;31.33;;;;;;;7.49;74.43;100599.30;2157172;82;31163;-67
2021/04/18 01:30:47;;;;;;;51.85;30.57;;;;;;;7.45;74.42;100598.05;2164980;81;33153;-67
2021/04/18 01:33:49;;;;;;;49.63;31.68;;;;;;;7.42;74.43;100594.17;2170713;80;28865;-66
2021/04/18 01:36:52;;;;;;;52.95;32.13;;;;;;;7.40;74.41;100592.02;2178623;81;27715;-67
2021/04/18 01:39:54;;;;;;;53.23;32.98;;;;;;;7.38;74.45;100593.86;2178727;81;28000;-65
2021/04/18 01:42:56;;;;;;;51.53;33.33;;;;;;;7.36;74.47;100594.36;2178751;80;31123;-66
2021/04/18 01:45:58;;;;;;;49.90;32.28;;;;;;;7.35;74.59;100593.09;2140064;83;33116;-67
2021/04/18 01:49:00;;;;;;;47.35;32.42;;;;;;;7.36;74.69;100606.83;2211608;79;28743;-67
2021/04/18 01:52:03;;;;;;;49.85;32.83;;;;;;;7.34;74.58;100607.33;2217300;80;27660;-67
2021/04/18 01:55:07;;;;;;;51.95;32.80;;;;;;;7.33;74.70;100596.26;2210946;80;28927;-66
2021/04/18 01:58:09;;;;;;;49.98;34.63;;;;;;;7.33;74.75;100595.78;2178675;80;32067;-67
2021/04/18 02:01:11;;;;;;;51.80;33.58;;;;;;;7.31;74.78;100588.29;2185456;80;34052;-67
2021/04/18 02:04:26;;;;;;;52.35;35.60;;;;;;;7.32;74.78;100585.19;2178535;81;30158;-67
2021/04/18 02:07:28;;;;;;;57.70;36.47;;;;;;;7.32;74.83;100586.52;2178677;81;27657;-68
2021/04/18 02:10:30;;;;;;;54.25;37.65;;;;;;;7.30;74.84;100590.54;2193093;80;28815;-68
2021/04/18 02:13:32;;;;;;;58.95;36.15;;;;;;;7.29;74.89;100586.13;2216961;79;31617;-68
2021/04/18 02:16:35;;;;;;;55.60;34.83;;;;;;;7.28;74.86;100592.41;2216986;80;33120;-67
2021/04/18 02:19:37;;;;;;;51.77;32.58;;;;;;;7.27;74.97;100589.33;2217341;79;28858;-67
2021/04/18 02:22:39;;;;;;;48.35;31.93;;;;;;;7.29;75.02;100583.02;2217014;80;27710;-67
2021/04/18 02:25:41;;;;;;;48.38;30.68;;;;;;;7.34;75.03;100586.02;2215763;80;29280;-68
2021/04/18 02:28:43;;;;;;;56.83;32.60;;;;;;;7.37;75.04;100575.22;2217384;79;31173;-67
2021/04/18 02:31:45;;;;;;;54.55;34.10;;;;;;;7.42;75.07;100582.19;2217502;80;33633;-67
2021/04/18 02:34:48;;;;;;;58.80;35.40;;;;;;;7.48;75.07;100574.89;2217419;80;30042;-68
2021/04/18 02:37:50;;;;;;;51.98;34.23;;;;;;;7.53;75.02;100576.47;2216651;79;27746;-69
2021/04/18 02:40:52;;;;;;;55.85;35.35;;;;;;;7.55;75.03;100566.64;2216295;80;30097;-68
2021/04/18 02:43:54;;;;;;;56.65;34.98;;;;;;;7.60;74.95;100571.37;2217456;80;32006;-68
2021/04/18 02:46:57;;;;;;;52.83;33.80;;;;;;;7.62;74.93;100559.30;2199016;80;33986;-68
2021/04/18 02:49:59;;;;;;;55.10;33.00;;;;;;;7.64;74.91;100569.46;2177962;81;30116;-68
2021/04/18 02:53:01;;;;;;;47.33;31.20;;;;;;;7.68;74.80;100569.78;2178556;81;27688;-69
2021/04/18 02:56:04;;;;;;;52.83;32.93;;;;;;;7.70;74.72;100571.05;2178071;80;29727;-67
2021/04/18 02:59:06;;;;;;;60.33;35.03;;;;;;;7.71;74.69;100567.46;2198733;80;30885;-68
2021/04/18 03:02:08;;;;;;;54.73;34.95;;;;;;;7.75;74.76;100566.00;2203193;80;33491;-68
2021/04/18 03:05:11;;;;;;;56.53;35.48;;;;;;;7.78;74.68;100563.67;2178681;81;29743;-70
2021/04/18 03:08:13;;;;;;;48.45;35.50;;;;;;;7.83;74.72;100559.52;2207370;80;27667;-68
2021/04/18 03:11:17;;;;;;;49.30;35.50;;;;;;;7.86;74.64;100551.41;2216741;80;29330;-67
2021/04/18 03:14:18;;;;;;;52.23;35.17;;;;;;;7.85;74.49;100547.00;2217269;80;32546;-65
2021/04/18 03:17:20;;;;;;;53.87;35.70;;;;;;;7.84;74.45;100546.14;2213215;80;33112;-69
2021/04/18 03:20:22;;;;;;;51.98;34.08;;;;;;;7.83;74.46;100544.84;2168656;82;29171;-69
2021/04/18 03:23:25;;;;;;;53.52;32.78;;;;;;;7.82;74.44;100545.32;2208723;80;27672;-68
2021/04/18 03:26:27;;;;;;;51.33;33.48;;;;;;;7.81;74.35;100540.91;2169198;80;28892;-67
2021/04/18 03:29:29;;;;;;;50.10;33.73;;;;;;;7.78;74.23;100538.34;2198070;80;31200;-68
2021/04/18 03:32:31;;;;;;;56.85;36.55;;;;;;;7.79;74.27;100536.53;2163187;81;33124;-67
2021/04/18 03:35:33;;;;;;;55.70;35.48;;;;;;;7.78;74.25;100539.67;2161380;82;30038;-68
2021/04/18 03:38:37;;;;;;;57.33;36.30;;;;;;;7.75;74.28;100538.00;2103378;84;27766;-68
2021/04/18 03:41:39;;;;;;;56.85;37.78;;;;;;;7.77;74.32;100537.08;2177879;81;29618;-68
2021/04/18 03:44:41;;;;;;;53.10;37.58;;;;;;;7.75;74.29;100543.77;2185618;80;31203;-68
2021/04/18 03:47:44;;;;;;;60.28;39.00;;;;;;;7.72;74.24;100543.42;2201955;80;33176;-68
2021/04/18 03:50:46;;;;;;;55.60;35.10;;;;;;;7.68;74.25;100535.59;2216952;80;29144;-68
2021/04/18 03:53:48;;;;;;;51.00;33.33;;;;;;;7.64;74.32;100536.61;2216561;80;27937;-68
2021/04/18 03:56:51;;;;;;;57.27;35.10;;;;;;;7.65;74.30;100541.02;2211939;79;29759;-69
2021/04/18 03:59:53;;;;;;;55.70;36.83;;;;;;;7.67;74.34;100538.70;2204285;80;31190;-69
2021/04/18 04:02:55;;;;;;;52.85;36.08;;;;;;;7.70;74.39;100539.05;2178625;81;33227;-68
2021/04/18 04:05:57;;;;;;;53.70;35.75;;;;;;;7.72;74.44;100542.54;2179288;80;29258;-68
2021/04/18 04:08:59;;;;;;;60.73;38.33;;;;;;;7.75;74.37;100539.77;2185622;79;27768;-68
2021/04/18 04:12:01;;;;;;;57.70;37.98;;;;;;;7.75;74.36;100538.44;2178547;81;28828;-68
2021/04/18 04:15:06;;;;;;;55.95;37.30;;;;;;;7.74;74.33;100540.25;2180877;80;31585;-68
2021/04/18 04:18:08;;;;;;;54.67;38.70;;;;;;;7.75;74.33;100541.11;2217530;80;35197;-68
2021/04/18 04:21:10;;;;;;;56.75;35.58;;;;;;;7.72;74.31;100539.43;2217433;80;29153;-68
2021/04/18 04:24:12;;;;;;;54.65;35.28;;;;;;;7.72;74.32;100539.88;2217236;79;28128;-68
2021/04/18 04:27:14;;;;;;;52.20;34.35;;;;;;;7.72;74.32;100543.88;2217250;80;29706;-68
2021/04/18 04:30:17;;;;;;;54.50;36.35;;;;;;;7.74;74.33;100543.36;2215730;80;31140;-68
2021/04/18 04:33:19;;;;;;;60.88;38.58;;;;;;;7.79;74.43;100542.75;2176628;80;33127;-68
2021/04/18 04:36:21;;;;;;;62.58;39.92;;;;;;;7.85;74.42;100538.55;2136917;83;30032;-68
2021/04/18 04:39:23;;;;;;;68.70;43.38;;;;;;;7.90;74.43;100539.72;2176660;81;27594;-69
2021/04/18 04:42:26;;;;;;;64.10;41.90;;;;;;;7.95;74.34;100537.74;2138144;83;30174;-68
2021/04/18 04:45:28;;;;;;;63.60;42.27;;;;;;;7.98;74.30;100537.64;2217197;80;31082;-69
2021/04/18 04:48:30;;;;;;;66.02;41.10;;;;;;;8.00;74.26;100538.94;2217340;80;33985;-69
2021/04/18 04:51:32;;;;;;;60.38;39.10;;;;;;;8.03;74.34;100537.03;2211428;80;30009;-68
2021/04/18 04:54:34;;;;;;;58.87;37.75;;;;;;;8.05;74.26;100541.85;2217415;80;27623;-69
2021/04/18 04:57:36;;;;;;;57.65;38.75;;;;;;;8.07;74.19;100539.11;2217152;80;28802;-68
2021/04/18 05:00:38;;;;;;;65.37;41.42;;;;;;;8.13;74.11;100544.25;2216844;80;31688;-69
2021/04/18 05:03:40;;;;;;;68.95;45.55;;;;;;;8.15;74.16;100542.40;2217100;80;33572;-68
2021/04/18 05:06:42;;;;;;;59.83;39.27;;;;;;;8.23;74.19;100546.57;2217206;80;29180;-68
2021/04/18 05:09:45;;;;;;;65.72;43.92;;;;;;;8.30;74.22;100542.29;2215675;80;27738;-68
2021/04/18 05:12:47;;;;;;;69.55;45.15;;;;;;;8.33;74.06;100545.33;2222664;79;28827;-68
2021/04/18 05:15:49;;;;;;;67.92;45.28;;;;;;;8.33;73.98;100546.19;2227894;79;31150;-68
2021/04/18 05:18:51;;;;;;;63.58;43.25;;;;;;;8.37;73.98;100544.27;2227967;79;34005;-68
2021/04/18 05:21:53;;;;;;;61.28;40.12;;;;;;;8.42;74.03;100546.31;2228025;79;29754;-68
2021/04/18 05:24:55;;;;;;;69.40;39.20;;;;;;;8.48;74.07;100547.92;2222749;79;27590;-68
2021/04/18 05:27:57;;;;;;;51.55;36.73;;;;;;;8.55;74.01;100553.90;2178631;81;28823;-68
2021/04/18 05:30:59;;;;;;;53.38;36.80;;;;;;;8.61;73.82;100554.54;2178491;80;31590;-68
2021/04/18 05:34:02;;;;;;;54.13;35.78;;;;;;;8.66;73.82;100552.58;2178492;80;33055;-68
2021/04/18 05:37:05;;;;;;;59.33;36.23;;;;;;;8.69;73.73;100551.58;2179332;80;29178;-69
2021/04/18 05:40:08;;;;;;;56.77;38.85;;;;;;;8.74;73.71;100552.77;2178072;81;27614;-69
2021/04/18 05:43:11;;;;;;;56.73;36.08;;;;;;;8.83;73.74;100555.55;2178610;81;28805;-68
2021/04/18 05:46:13;;;;;;;54.63;36.15;;;;;;;8.90;73.69;100560.59;2178643;81;31197;-68
2021/04/18 05:49:15;;;;;;;54.77;37.25;;;;;;;8.94;73.50;100561.34;2178794;80;33265;-68
2021/04/18 05:52:19;;;;;;;58.73;38.88;;;;;;;8.97;73.46;100558.08;2178668;81;29046;-68
2021/04/18 05:55:21;;;;;;;61.23;35.63;;;;;;;9.02;73.23;100562.37;2181125;79;27595;-68
2021/04/18 05:58:23;;;;;;;54.03;34.58;;;;;;;9.08;73.40;100566.16;2213497;80;30099;-68
2021/04/18 06:01:26;;;;;;;55.15;36.98;;;;;;;9.15;73.28;100563.63;2168701;82;31632;-68
2021/04/18 06:04:28;;;;;;;58.00;37.20;;;;;;;9.20;73.06;100561.66;2185525;80;34395;-69
2021/04/18 06:07:31;;;;;;;56.65;36.13;;;;;;;9.23;73.11;100568.67;2216564;80;29231;-68
2021/04/18 06:10:33;;;;;;;57.75;39.55;;;;;;;9.24;72.63;100570.42;2168890;82;27547;-68
2021/04/18 06:13:35;;;;;;;61.23;41.28;;;;;;;9.25;72.92;100569.04;2178777;81;29737;-68
2021/04/18 06:16:37;;;;;;;51.90;35.80;;;;;;;9.34;73.03;100567.80;2178831;81;31193;-68
2021/04/18 06:19:39;;;;;;;50.00;34.88;;;;;;;9.34;72.49;100570.92;2205674;80;33117;-68
2021/04/18 06:22:42;;;;;;;59.48;37.03;;;;;;;9.32;72.71;100565.65;2217384;80;29349;-68
2021/04/18 06:25:44;;;;;;;57.15;35.78;;;;;;;9.34;72.69;100565.13;2216714;80;27660;-68
2021/04/18 06:28:46;;;;;;;58.63;38.00;;;;;;;9.28;72.25;100568.03;2217494;80;29763;-69
2021/04/18 06:31:48;;;;;;;55.12;36.00;;;;;;;9.22;72.48;100562.92;2217162;80;31193;-69
2021/04/18 06:34:50;;;;;;;62.70;36.50;;;;;;;9.25;72.44;100563.69;2214329;80;33064;-69
2021/04/18 06:37:52;;;;;;;58.68;40.17;;;;;;;9.28;72.67;100571.56;2217477;80;30067;-69
2021/04/18 06:40:55;;;;;;;70.55;42.58;;;;;;;9.35;72.74;100563.30;2217550;80;27693;-69
2021/04/18 06:43:57;;;;;;;69.07;43.68;;;;;;;9.34;72.56;100567.80;2217533;80;28820;-69
2021/04/18 06:47:01;;;;;;;72.35;43.45;;;;;;;9.40;72.67;100567.53;2217014;80;32163;-69
2021/04/18 06:50:07;;;;;;;74.55;42.83;;;;;;;9.50;72.41;100570.70;2217066;80;34083;-69
2021/04/18 06:53:09;;;;;;;76.57;45.73;;;;;;;9.58;72.30;100567.72;2217578;80;29166;-69
2021/04/18 06:56:12;;;;;;;79.35;45.70;;;;;;;9.64;72.47;100566.14;2196884;80;28081;-69
2021/04/18 06:59:14;;;;;;;69.00;42.25;;;;;;;9.78;72.27;100564.20;2178851;80;28824;-69
2021/04/18 07:02:29;;;;;;;80.75;47.13;;;;;;;9.91;71.98;100565.04;2217376;79;31138;-69
2021/04/18 07:05:37;;;;;;;75.62;44.83;;;;;;;10.12;72.39;100553.39;2215901;80;33936;-69
2021/04/18 07:08:39;;;;;;;60.20;38.75;;;;;;;10.30;71.82;100562.89;2216468;80;30187;-69
2021/04/18 07:11:51;;;;;;;65.62;39.83;;;;;;;10.36;71.55;100569.32;2217398;80;27621;-68
2021/04/18 07:14:53;;;;;;;65.45;40.50;;;;;;;10.42;71.36;100565.08;2216528;79;28811;-68
2021/04/18 07:17:55;;;;;;;56.42;36.70;;;;;;;10.53;71.31;100567.73;2217041;80;31147;-68
2021/04/18 07:20:57;;;;;;;61.25;39.85;;;;;;;10.62;71.18;100572.66;2216463;80;33606;-67
2021/04/18 07:24:06;;;;;;;52.73;35.90;;;;;;;10.64;70.69;100574.34;2213009;80;29564;-67
2021/04/18 07:27:09;;;;;;;54.53;37.60;;;;;;;10.60;70.42;100578.55;2198987;80;27706;-67
2021/04/18 07:30:13;;;;;;;49.65;35.43;;;;;;;10.59;70.80;100573.67;2217241;80;28187;-67
2021/04/18 07:33:15;;;;;;;78.53;51.10;;;;;;;10.61;70.42;100576.27;2217463;80;31206;-68
2021/04/18 07:36:19;;;;;;;76.05;50.75;;;;;;;10.60;70.09;100575.42;2180871;80;33235;-67
2021/04/18 07:39:21;;;;;;;54.18;35.55;;;;;;;10.60;70.40;100578.09;2217113;80;30471;-67
2021/04/18 07:42:39;;;;;;;53.13;36.28;;;;;;;10.77;70.48;100572.44;2217537;80;27565;-67
2021/04/18 07:45:45;;;;;;;52.88;36.65;;;;;;;10.91;70.21;100572.66;2216725;80;29760;-67
2021/04/18 07:48:48;;;;;;;51.37;34.55;;;;;;;11.02;70.14;100576.18;2191717;79;31126;-67
2021/04/18 07:51:50;;;;;;;49.48;34.27;;;;;;;11.15;70.07;100566.20;2215997;80;33207;-66
2021/04/18 07:54:53;;;;;;;47.17;33.02;;;;;;;11.21;69.57;100568.61;2180380;80;30144;-67
2021/04/18 07:57:56;;;;;;;49.20;33.85;;;;;;;11.32;69.46;100572.97;2205761;79;27647;-67
2021/04/18 08:01:00;;;;;;;46.33;32.67;;;;;;;11.39;69.33;100574.42;2213549;80;28764;-68
2021/04/18 08:04:02;;;;;;;46.53;33.77;;;;;;;11.49;69.54;100573.96;2212743;80;32055;-63
2021/04/18 08:07:05;;;;;;;45.60;33.05;;;;;;;11.57;69.54;100573.13;2217135;80;34239;-64
2021/04/18 08:10:41;;;;;;;50.40;31.82;;;;;;;11.80;69.55;100576.00;2195687;80;30114;-63
2021/04/18 08:13:48;;;;;;;46.25;32.58;;;;;;;11.99;68.75;100577.30;2178447;81;28138;-63
2021/04/18 08:16:56;;;;;;;44.33;32.08;;;;;;;12.31;68.77;100574.76;2181030;80;28840;-63
2021/04/18 08:20:01;;;;;;;44.65;30.48;;;;;;;12.55;68.55;100573.08;2186268;80;30355;-64
2021/04/18 08:23:06;;;;;;;;;;;;;;;12.83;68.13;100564.84;2201487;80;33938;-63
2021/04/18 08:26:12;;;;;;;46.63;31.15;;;;;;;13.09;67.33;100574.62;2164435;82;29374;-62
2021/04/18 08:29:14;;;;;;;41.90;30.35;;;;;;;13.18;67.12;100568.74;2176614;81;27688;-64
2021/04/18 08:32:16;;;;;;;47.00;31.87;;;;;;;13.27;66.81;100567.36;2217021;79;28879;-63
2021/04/18 08:35:22;;;;;;;47.35;30.75;;;;;;;13.19;66.39;100568.25;2197594;79;32019;-63
2021/04/18 08:38:24;;;;;;;47.60;32.58;;;;;;;13.25;66.19;100567.03;2149446;82;32191;-63
2021/04/18 08:41:54;;;;;;;43.50;31.77;;;;;;;13.32;66.06;100576.50;2179379;80;30161;-64
2021/04/18 08:44:57;;;;;;;50.43;31.75;;;;;;;13.25;65.30;100570.61;2188672;80;27640;-64
2021/04/18 08:48:00;;;;;;;51.20;32.80;;;;;;;13.14;65.48;100567.17;2189337;80;28814;-64
2021/04/18 08:51:06;;;;;;;43.42;29.02;;;;;;;13.00;65.68;100569.28;2217456;80;31148;-64
2021/04/18 08:54:10;;;;;;;49.33;33.45;;;;;;;12.86;64.85;100571.87;2216619;80;34315;-64
2021/04/18 08:57:15;;;;;;;47.13;32.13;;;;;;;12.66;64.49;100572.95;2213837;80;29238;-64
2021/04/18 09:00:18;;;;;;;50.65;34.48;;;;;;;12.48;64.22;100576.17;2185263;80;27482;-65
2021/04/18 09:03:20;;;;;;;51.42;34.98;;;;;;;12.35;64.92;100575.95;2179373;80;28843;-63
2021/04/18 09:06:35;;;;;;;48.33;31.30;;;;;;;12.43;65.29;100575.94;2149543;81;31148;-66
2021/04/18 09:09:37;;;;;;;49.93;33.90;;;;;;;12.58;65.65;100578.26;2178611;81;33118;-65
2021/04/18 09:12:39;;;;;;;52.55;33.23;;;;;;;12.66;64.73;100569.78;2182622;80;28984;-65
2021/04/18 09:15:42;;;;;;;43.30;28.85;;;;;;;12.66;64.72;100572.95;2195324;81;27724;-64
2021/04/18 09:18:44;;;;;;;46.53;29.60;;;;;;;12.73;64.59;100574.38;2180372;80;28823;-63
2021/04/18 09:22:11;;;;;;;42.60;27.80;;;;;;;12.76;64.04;100568.35;2212612;80;32535;-63
2021/04/18 09:25:20;;;;;;;44.73;28.92;;;;;;;12.72;63.97;100573.49;2103705;84;33618;-63
2021/04/18 09:28:22;;;;;;;44.27;29.00;;;;;;;12.80;64.17;100574.42;2053964;84;29391;-63
2021/04/18 09:31:24;;;;;;;42.78;28.32;;;;;;;12.83;64.19;100570.68;2032107;86;27689;-64
2021/04/18 09:34:27;;;;;;;45.95;28.62;;;;;;;12.91;63.51;100569.80;2057102;85;28831;-64
2021/04/18 09:37:35;;;;;;;43.55;28.15;;;;;;;13.03;63.73;100573.15;2049827;86;31179;-64
2021/04/18 09:40:38;;;;;;;42.27;27.17;;;;;;;13.12;63.28;100574.95;2002997;88;33113;-64
2021/04/18 09:43:40;;;;;;;41.95;29.37;;;;;;;13.12;63.42;100570.91;2071682;85;29287;-64
2021/04/18 09:46:43;;;;;;;50.92;31.27;;;;;;;13.01;63.09;100576.39;2056913;86;28199;-64
2021/04/18 09:49:58;;;;;;;38.92;25.37;;;;;;;12.89;63.25;100572.59;2056651;86;28940;-64
2021/04/18 09:53:22;;;;;;;38.95;25.85;;;;;;;12.81;62.46;100573.47;2057018;86;31151;-63
2021/04/18 09:56:24;;;;;;;39.67;25.35;;;;;;;12.62;62.52;100578.98;2056024;86;33128;-65
2021/04/18 09:59:26;;;;;;;42.70;26.42;;;;;;;12.47;63.09;100571.26;2050659;85;29174;-63
2021/04/18 10:02:28;;;;;;;42.83;26.12;;;;;;;12.45;63.23;100577.19;2131315;81;28029;-63
2021/04/18 10:05:36;;;;;;;39.55;24.87;;;;;;;12.54;63.26;100569.11;2177814;81;30235;-63
2021/04/18 10:08:40;;;;;;;42.30;26.00;;;;;;;12.77;63.07;100577.27;2169477;81;31150;-63
2021/04/18 10:12:01;;;;;;;42.00;25.52;;;;;;;12.92;63.29;100575.08;2210161;80;33072;-63
2021/04/18 10:15:08;;;;;;;42.05;26.40;;;;;;;12.98;62.63;100572.55;2216371;80;29166;-63
2021/04/18 10:18:11;;;;;;;40.92;28.47;;;;;;;13.10;62.97;100578.20;2216782;80;28104;-63
2021/04/18 10:21:22;;;;;;;45.20;26.90;;;;;;;13.36;63.12;100576.23;2198859;80;28821;-64
2021/04/18 10:24:39;;;;;;;32.58;23.35;;;;;;;13.62;63.08;100577.07;2178035;81;31158;-64
2021/04/18 10:27:41;;;;;;;34.27;23.47;;;;;;;13.79;62.10;100576.95;2178616;81;33109;-63
2021/04/18 10:30:43;;;;;;;37.58;24.12;;;;;;;13.89;61.38;100576.44;2192617;80;29145;-62
2021/04/18 10:33:46;;;;;;;41.05;25.02;;;;;;;13.84;61.02;100580.72;2216964;80;27585;-63
2021/04/18 10:36:48;;;;;;;51.05;31.97;;;;;;;13.71;60.15;100579.25;2216818;80;28807;-64
2021/04/18 10:39:50;;;;;;;45.00;31.37;;;;;;;13.58;60.55;100580.89;2216824;80;33450;-63
2021/04/18 10:42:53;;;;;;;33.60;24.92;;;;;;;13.41;60.78;100584.08;2215896;80;34151;-64
2021/04/18 10:45:55;;;;;;;36.58;24.32;;;;;;;13.29;60.27;100576.67;2215711;80;28788;-64
2021/04/18 10:48:57;;;;;;;30.43;21.93;;;;;;;13.12;60.55;100581.18;2216167;80;27646;-63
2021/04/18 10:51:59;;;;;;;37.58;23.02;;;;;;;13.04;60.53;100578.06;2216863;80;30178;-62
2021/04/18 10:55:02;;;;;;;33.25;22.50;;;;;;;12.84;60.68;100579.14;2217087;80;31594;-63
2021/04/18 10:58:04;;;;;;;33.10;22.65;;;;;;;12.58;60.71;100579.60;2216780;80;33621;-64
2021/04/18 11:01:08;;;;;;;38.70;23.77;;;;;;;12.37;61.00;100581.62;2191798;80;30121;-64
2021/04/18 11:04:11;;;;;;;35.28;22.17;;;;;;;12.21;61.37;100577.55;2178294;80;27877;-64
2021/04/18 11:07:13;;;;;;;35.78;22.55;;;;;;;12.13;61.22;100577.94;2177686;81;28790;-64
2021/04/18 11:10:16;;;;;;;39.33;23.70;;;;;;;12.04;61.54;100574.86;2215417;80;31572;-63
2021/04/18 11:13:18;;;;;;;41.20;24.50;;;;;;;11.98;61.52;100577.36;2216718;80;33132;-63
2021/04/18 11:16:20;;;;;;;33.50;22.73;;;;;;;11.99;61.96;100575.95;2216968;80;29246;-63
2021/04/18 11:19:22;;;;;;;32.05;23.42;;;;;;;12.10;61.88;100575.41;2216462;80;27663;-63
2021/04/18 11:22:25;;;;;;;33.38;23.12;;;;;;;12.26;61.89;100577.30;2210850;80;28867;-64
2021/04/18 11:25:28;;;;;;;36.98;23.50;;;;;;;12.47;61.95;100579.31;2194469;81;31149;-62
2021/04/18 11:28:30;;;;;;;39.30;22.80;;;;;;;12.70;61.81;100576.73;2193608;81;33321;-64
2021/04/18 11:31:32;;;;;;;42.75;24.40;;;;;;;13.02;62.13;100577.28;2194325;81;28963;-63
2021/04/18 11:34:34;;;;;;;38.50;22.80;;;;;;;13.36;61.67;100573.55;2180344;80;27629;-64
2021/04/18 11:37:38;;;;;;;34.27;23.10;;;;;;;13.70;61.76;100572.59;2248622;78;28663;-64
2021/04/18 11:40:40;;;;;;;35.30;22.27;;;;;;;13.95;60.99;100567.97;2267696;78;31126;-64
2021/04/18 11:43:43;;;;;;;30.35;20.65;;;;;;;14.22;60.80;100565.94;2253951;78;33560;-63
2021/04/18 11:46:45;;;;;;;37.75;26.00;;;;;;;14.46;60.42;100562.22;2179036;80;29148;-62
2021/04/18 11:49:48;;;;;;;36.77;24.18;;;;;;;14.69;60.50;100563.98;2201753;80;27617;-64
2021/04/18 11:52:50;;;;;;;29.70;20.80;;;;;;;14.90;60.04;100565.79;2216113;80;28888;-62
2021/04/18 11:55:52;;;;;;;33.85;22.32;;;;;;;15.09;59.61;100567.31;2217127;79;31098;-64
2021/04/18 11:58:55;;;;;;;31.75;22.98;;;;;;;15.25;58.75;100560.45;2207487;80;33124;-64
2021/04/18 12:01:57;;;;;;;32.70;21.40;;;;;;;15.34;59.13;100561.19;2213556;80;29175;-64
2021/04/18 12:05:00;;;;;;;30.68;21.57;;;;;;;15.41;58.13;100563.88;2216896;80;27664;-65
2021/04/18 12:08:02;;;;;;;35.88;23.85;;;;;;;15.31;58.38;100563.62;2211414;79;30204;-64
2021/04/18 12:11:05;;;;;;;31.60;21.02;;;;;;;15.19;58.25;100564.42;2216207;80;31560;-63
2021/04/18 12:14:07;;;;;;;32.90;21.68;;;;;;;14.93;57.51;100563.40;2217341;80;32799;-64
2021/04/18 12:17:09;;;;;;;31.62;22.32;;;;;;;14.69;58.09;100570.72;2217234;79;29143;-64
2021/04/18 12:20:14;;;;;;;31.25;22.77;;;;;;;14.41;57.85;100571.91;2182925;80;27664;-64
2021/04/18 12:23:17;;;;;;;32.77;23.87;;;;;;;13.97;57.00;100575.02;2179942;78;28867;-64
2021/04/18 12:26:19;;;;;;;31.68;22.75;;;;;;;13.58;57.75;100578.20;2268882;78;31126;-64
2021/04/18 12:29:22;;;;;;;34.35;22.13;;;;;;;13.32;58.16;100577.36;2268571;78;33114;-63
2021/04/18 12:32:24;;;;;;;32.58;23.00;;;;;;;13.13;58.45;100580.23;2247359;78;29162;-63
2021/04/18 12:35:26;;;;;;;33.42;23.38;;;;;;;13.01;58.60;100577.73;2181848;81;27813;-64
2021/04/18 12:38:28;;;;;;;34.18;21.77;;;;;;;12.84;58.80;100576.45;2182783;81;30280;-62
2021/04/18 12:41:31;;;;;;;33.90;23.12;;;;;;;12.81;59.08;100572.13;2131539;82;30359;-63
2021/04/18 12:44:33;;;;;;;27.87;21.25;;;;;;;12.85;59.55;100573.70;2156320;82;34267;-64
2021/04/18 12:47:36;;;;;;;37.48;23.25;;;;;;;12.86;58.98;100578.59;2161486;81;29302;-64
2021/04/18 12:50:39;;;;;;;36.68;22.67;;;;;;;12.74;59.16;100572.94;2161547;82;27740;-64
2021/04/18 12:53:43;;;;;;;34.55;22.27;;;;;;;12.73;59.65;100573.03;2161489;82;28115;-64
2021/04/18 12:56:45;;;;;;;30.85;22.45;;;;;;;12.68;59.24;100576.44;2185081;80;32125;-64
2021/04/18 12:59:53;;;;;;;36.10;22.90;;;;;;;12.60;59.09;100566.10;2198283;80;33311;-64
2021/04/18 13:02:51;;;;;;;28.50;19.00;;;;;;;12.54;59.50;100567.77;2199404;80;29198;-64
2021/04/18 13:05:54;;;;;;;28.75;19.42;;;;;;;12.54;59.03;100573.14;2166016;80;28056;-64
2021/04/18 13:08:56;;;;;;;29.92;20.10;;;;;;;12.42;59.04;100571.97;2161180;82;28817;-64
2021/04/18 13:11:58;;;;;;;30.32;19.65;;;;;;;12.41;59.59;100574.29;2160953;82;31206;-64
2021/04/18 13:15:01;;;;;;;29.40;19.10;;;;;;;12.31;59.29;100580.13;2161041;82;33550;-64
2021/04/18 13:18:05;;;;;;;26.65;18.70;;;;;;;12.17;59.35;100574.61;2161414;82;29167;-64
2021/04/18 13:21:07;;;;;;;27.75;19.20;;;;;;;11.98;59.10;100576.02;2182659;80;27901;-64
2021/04/18 13:24:10;;;;;;;26.60;18.48;;;;;;;11.83;59.41;100577.66;2198749;80;31136;-64
2021/04/18 13:27:13;;;;;;;29.60;18.17;;;;;;;11.69;59.81;100579.67;2199358;80;32062;-64
2021/04/18 13:30:16;;;;;;;26.68;18.73;;;;;;;11.59;60.03;100577.92;2199404;80;33075;-64
2021/04/18 13:33:18;;;;;;;30.32;20.15;;;;;;;11.53;60.22;100575.07;2198302;80;30077;-64
2021/04/18 13:36:21;;;;;;;31.05;20.37;;;;;;;11.44;60.52;100586.27;2198878;80;27711;-64
2021/04/18 13:39:23;;;;;;;33.05;21.23;;;;;;;11.39;60.60;100585.16;2199492;80;29333;-64
2021/04/18 13:42:25;;;;;;;31.40;21.00;;;;;;;11.28;60.78;100582.59;2190261;80;31559;-64
2021/04/18 13:45:27;;;;;;;33.83;21.05;;;;;;;11.20;60.92;100582.95;2177693;80;33631;-64
2021/04/18 13:48:29;;;;;;;35.73;21.02;;;;;;;11.12;61.07;100591.37;2183472;81;29161;-63
2021/04/18 13:51:31;;;;;;;34.23;20.43;;;;;;;11.09;61.45;100585.66;2183606;81;28157;-64
2021/04/18 13:54:34;;;;;;;32.70;21.35;;;;;;;11.09;61.50;100583.46;2183511;81;29795;-64
2021/04/18 13:57:36;;;;;;;26.77;19.00;;;;;;;11.10;61.59;100577.16;2170599;80;31215;-64
2021/04/18 14:00:38;;;;;;;30.15;20.23;;;;;;;11.12;61.41;100588.69;2197783;80;33105;-65